createdAt,value
2023-09-07T00:00:09.948Z,1021.10
2023-09-07T00:01:09.948Z,1021.08
2023-09-07T00:02:09.957Z,1021.13
2023-09-07T00:03:09.920Z,1021.11
2023-09-07T00:04:09.892Z,1021.09
2023-09-07T00:05:10.010Z,1021.11
2023-09-07T00:06:09.713Z,1021.05
2023-09-07T00:07:09.709Z,1021.10
2023-09-07T00:08:09.657Z,1021.10
2023-09-07T00:09:09.603Z,1021.11
2023-09-07T00:10:09.706Z,1021.08
2023-09-07T00:11:09.549Z,1021.12
2023-09-07T00:12:09.530Z,1021.14
2023-09-07T00:13:09.558Z,1021.10
2023-09-07T00:14:09.455Z,1021.15
2023-09-07T00:15:09.425Z,1021.11
2023-09-07T00:16:09.503Z,1021.12
2023-09-07T00:17:09.922Z,1021.15
2023-09-07T00:18:09.366Z,1021.11
2023-09-07T00:19:09.311Z,1021.09
2023-09-07T00:20:09.266Z,1021.06
2023-09-07T00:21:09.234Z,1021.08
2023-09-07T00:22:09.316Z,1021.09
2023-09-07T00:23:09.181Z,1021.09
2023-09-07T00:24:09.145Z,1021.07
2023-09-07T00:25:10.036Z,1021.10
2023-09-07T00:26:09.086Z,1021.11
2023-09-07T00:27:09.102Z,1021.06
2023-09-07T00:28:09.128Z,1021.07
2023-09-07T00:29:09.004Z,1021.10
2023-09-07T00:30:08.957Z,1021.04
2023-09-07T00:31:08.994Z,1021.08
2023-09-07T00:32:08.958Z,1021.09
2023-09-07T00:33:08.896Z,1021.09
2023-09-07T00:34:08.917Z,1021.09
2023-09-07T00:35:08.815Z,1021.07
2023-09-07T00:36:08.794Z,1021.13
2023-09-07T00:37:08.823Z,1021.11
2023-09-07T00:38:08.711Z,1021.13
2023-09-07T00:39:08.697Z,1021.11
2023-09-07T00:40:08.803Z,1021.16
2023-09-07T00:41:08.647Z,1021.11
2023-09-07T00:42:08.612Z,1021.14
2023-09-07T00:43:08.684Z,1021.10
2023-09-07T00:44:08.529Z,1021.10
2023-09-07T00:45:08.509Z,1021.10
2023-09-07T00:46:08.549Z,1021.09
2023-09-07T00:47:08.460Z,1021.07
2023-09-07T00:48:08.455Z,1021.08
2023-09-07T00:49:08.380Z,1021.09
2023-09-07T00:50:08.381Z,1021.08
2023-09-07T00:51:08.404Z,1021.04
2023-09-07T00:52:08.305Z,1021.07
2023-09-07T00:53:08.260Z,1021.06
2023-09-07T00:54:08.244Z,1021.08
2023-09-07T00:55:08.196Z,1021.06
2023-09-07T00:56:08.189Z,1021.08
2023-09-07T00:57:08.203Z,1021.04
2023-09-07T00:58:08.127Z,1021.08
2023-09-07T00:59:08.082Z,1021.07
2023-09-07T01:00:08.064Z,1021.07
2023-09-07T01:01:08.066Z,1021.05
2023-09-07T01:02:08.284Z,1021.01
2023-09-07T01:03:08.095Z,1021.04
2023-09-07T01:04:07.982Z,1021.01
2023-09-07T01:05:07.922Z,1021.05
2023-09-07T01:06:07.872Z,1021.04
2023-09-07T01:07:07.832Z,1021.02
2023-09-07T01:08:07.835Z,1020.99
2023-09-07T01:09:07.837Z,1020.98
2023-09-07T01:10:07.748Z,1021.00
2023-09-07T01:11:07.749Z,1021.03
2023-09-07T01:12:07.711Z,1021.03
2023-09-07T01:13:07.651Z,1021.03
2023-09-07T01:14:07.677Z,1021.01
2023-09-07T01:15:07.682Z,1021.03
2023-09-07T01:16:07.637Z,1021.01
2023-09-07T01:17:07.604Z,1021.01
2023-09-07T01:18:21.821Z,1020.98
2023-09-07T01:19:07.524Z,1020.98
2023-09-07T01:20:07.505Z,1020.99
2023-09-07T01:21:07.497Z,1020.98
2023-09-07T01:22:07.376Z,1020.98
2023-09-07T01:23:07.357Z,1020.94
2023-09-07T01:24:07.861Z,1020.95
2023-09-07T01:25:07.307Z,1020.97
2023-09-07T01:26:07.283Z,1020.95
2023-09-07T01:27:07.271Z,1020.95
2023-09-07T01:28:07.188Z,1020.99
2023-09-07T01:29:07.177Z,1020.97
2023-09-07T01:30:07.170Z,1020.99
2023-09-07T01:31:07.258Z,1020.94
2023-09-07T01:32:07.091Z,1020.95
2023-09-07T01:33:07.028Z,1021.00
2023-09-07T01:34:07.265Z,1021.02
2023-09-07T01:35:07.040Z,1021.06
2023-09-07T01:36:07.017Z,1021.05
2023-09-07T01:37:06.909Z,1021.04
2023-09-07T01:38:06.930Z,1021.00
2023-09-07T01:39:06.896Z,1021.08
2023-09-07T01:40:06.838Z,1021.09
2023-09-07T01:41:06.932Z,1021.04
2023-09-07T01:42:06.771Z,1021.01
2023-09-07T01:43:06.727Z,1021.04
2023-09-07T01:44:06.759Z,1021.03
2023-09-07T01:45:06.665Z,1021.03
2023-09-07T01:46:06.637Z,1021.04
2023-09-07T01:47:06.787Z,1021.03
2023-09-07T01:48:06.607Z,1021.03
2023-09-07T01:49:06.556Z,1020.99
2023-09-07T01:50:06.594Z,1021.03
2023-09-07T01:51:06.489Z,1021.03
2023-09-07T01:52:06.536Z,1021.03
2023-09-07T01:53:06.421Z,1021.02
2023-09-07T01:54:06.525Z,1021.00
2023-09-07T01:55:06.355Z,1020.99
2023-09-07T01:56:06.493Z,1020.99
2023-09-07T01:57:06.366Z,1020.98
2023-09-07T01:58:06.269Z,1020.94
2023-09-07T01:59:06.277Z,1020.98
2023-09-07T02:00:06.872Z,1020.94
2023-09-07T02:01:06.250Z,1020.97
2023-09-07T02:02:06.155Z,1020.96
2023-09-07T02:03:06.223Z,1020.99
2023-09-07T02:04:06.869Z,1021.01
2023-09-07T02:05:06.082Z,1020.99
2023-09-07T02:06:06.018Z,1020.96
2023-09-07T02:07:05.990Z,1021.00
2023-09-07T02:08:06.082Z,1020.93
2023-09-07T02:09:05.916Z,1020.98
2023-09-07T02:10:05.923Z,1020.92
2023-09-07T02:11:05.888Z,1020.93
2023-09-07T02:12:05.834Z,1020.94
2023-09-07T02:13:05.859Z,1020.91
2023-09-07T02:14:05.827Z,1020.93
2023-09-07T02:15:05.741Z,1020.93
2023-09-07T02:16:05.732Z,1020.95
2023-09-07T02:17:05.790Z,1020.91
2023-09-07T02:18:05.737Z,1020.92
2023-09-07T02:19:05.640Z,1020.90
2023-09-07T02:20:05.591Z,1020.90
2023-09-07T02:21:05.554Z,1020.89
2023-09-07T02:22:05.540Z,1020.91
2023-09-07T02:23:05.584Z,1020.88
2023-09-07T02:24:05.483Z,1020.88
2023-09-07T02:25:05.439Z,1020.91
2023-09-07T02:26:05.419Z,1020.93
2023-09-07T02:27:05.391Z,1020.90
2023-09-07T02:28:05.417Z,1020.92
2023-09-07T02:29:05.312Z,1020.90
2023-09-07T02:30:05.418Z,1020.93
2023-09-07T02:31:05.308Z,1020.92
2023-09-07T02:32:05.226Z,1020.93
2023-09-07T02:33:05.239Z,1020.91
2023-09-07T02:34:05.270Z,1020.92
2023-09-07T02:35:05.122Z,1020.89
2023-09-07T02:36:05.107Z,1020.92
2023-09-07T02:37:05.074Z,1020.93
2023-09-07T02:38:05.024Z,1020.90
2023-09-07T02:39:05.017Z,1020.89
2023-09-07T02:40:05.047Z,1020.90
2023-09-07T02:41:04.928Z,1020.88
2023-09-07T02:42:04.940Z,1020.87
2023-09-07T02:43:04.897Z,1020.92
2023-09-07T02:44:04.847Z,1020.92
2023-09-07T02:45:04.894Z,1020.92
2023-09-07T02:46:04.847Z,1020.97
2023-09-07T02:47:04.756Z,1020.89
2023-09-07T02:48:04.835Z,1020.95
2023-09-07T02:49:04.693Z,1020.94
2023-09-07T02:50:04.716Z,1020.90
2023-09-07T02:51:04.677Z,1020.94
2023-09-07T02:52:04.599Z,1020.94
2023-09-07T02:53:04.568Z,1020.93
2023-09-07T02:54:04.523Z,1020.91
2023-09-07T02:55:04.552Z,1020.93
2023-09-07T02:56:04.517Z,1020.95
2023-09-07T02:57:04.441Z,1020.94
2023-09-07T02:58:04.448Z,1020.95
2023-09-07T02:59:04.427Z,1020.92
2023-09-07T03:00:05.000Z,1020.85
2023-09-07T03:01:04.471Z,1020.93
2023-09-07T03:02:04.277Z,1020.92
2023-09-07T03:03:04.351Z,1020.95
2023-09-07T03:04:04.280Z,1020.94
2023-09-07T03:05:04.217Z,1020.97
2023-09-07T03:06:04.183Z,1020.93
2023-09-07T03:07:04.213Z,1020.93
2023-09-07T03:08:04.117Z,1020.93
2023-09-07T03:09:04.076Z,1020.95
2023-09-07T03:10:04.149Z,1020.95
2023-09-07T03:11:04.035Z,1020.95
2023-09-07T03:12:03.976Z,1020.95
2023-09-07T03:13:03.959Z,1020.94
2023-09-07T03:14:03.903Z,1020.92
2023-09-07T03:15:03.878Z,1020.91
2023-09-07T03:16:03.974Z,1020.90
2023-09-07T03:17:03.946Z,1020.90
2023-09-07T03:18:03.869Z,1020.93
2023-09-07T03:19:03.794Z,1020.93
2023-09-07T03:20:03.732Z,1020.93
2023-09-07T03:21:03.849Z,1020.91
2023-09-07T03:22:03.715Z,1020.95
2023-09-07T03:23:03.673Z,1020.95
2023-09-07T03:24:03.606Z,1020.97
2023-09-07T03:25:03.629Z,1020.94
2023-09-07T03:26:03.535Z,1020.97
2023-09-07T03:27:03.786Z,1020.96
2023-09-07T03:28:03.538Z,1020.97
2023-09-07T03:29:03.443Z,1020.96
2023-09-07T03:30:03.439Z,1020.96
2023-09-07T03:31:03.384Z,1020.97
2023-09-07T03:32:03.582Z,1020.95
2023-09-07T03:33:03.335Z,1020.95
2023-09-07T03:34:03.307Z,1020.96
2023-09-07T03:35:03.257Z,1020.95
2023-09-07T03:36:03.237Z,1020.95
2023-09-07T03:37:03.348Z,1020.92
2023-09-07T03:38:03.173Z,1020.95
2023-09-07T03:39:03.174Z,1020.93
2023-09-07T03:40:03.099Z,1020.97
2023-09-07T03:41:03.052Z,1020.97
2023-09-07T03:42:03.103Z,1020.99
2023-09-07T03:43:03.986Z,1020.97
2023-09-07T03:44:02.967Z,1020.97
2023-09-07T03:45:02.951Z,1020.96
2023-09-07T03:46:03.017Z,1020.94
2023-09-07T03:47:02.945Z,1021.01
2023-09-07T03:48:02.927Z,1021.02
2023-09-07T03:49:02.963Z,1021.01
2023-09-07T03:50:02.796Z,1020.99
2023-09-07T03:51:02.759Z,1020.99
2023-09-07T03:52:02.761Z,1020.97
2023-09-07T03:53:02.700Z,1020.97
2023-09-07T03:54:02.735Z,1020.98
2023-09-07T03:55:02.660Z,1020.98
2023-09-07T03:56:02.598Z,1020.94
2023-09-07T03:57:02.555Z,1020.96
2023-09-07T03:58:02.533Z,1020.99
2023-09-07T03:59:02.505Z,1020.95
2023-09-07T04:00:02.550Z,1020.94
2023-09-07T04:01:02.462Z,1020.96
2023-09-07T04:02:02.571Z,1020.97
2023-09-07T04:03:02.430Z,1021.00
2023-09-07T04:04:02.440Z,1021.00
2023-09-07T04:05:02.472Z,1020.96
2023-09-07T04:06:02.423Z,1021.00
2023-09-07T04:07:02.267Z,1020.96
2023-09-07T04:08:02.218Z,1020.97
2023-09-07T04:09:02.364Z,1020.94
2023-09-07T04:10:03.396Z,1020.95
2023-09-07T04:11:02.127Z,1020.98
2023-09-07T04:12:02.259Z,1021.02
2023-09-07T04:13:02.073Z,1020.97
2023-09-07T04:14:02.044Z,1020.99
2023-09-07T04:15:02.306Z,1020.97
2023-09-07T04:16:02.087Z,1021.02
2023-09-07T04:17:01.957Z,1021.02
2023-09-07T04:18:02.029Z,1021.04
2023-09-07T04:19:02.062Z,1021.08
2023-09-07T04:20:01.859Z,1021.04
2023-09-07T04:21:01.860Z,1021.06
2023-09-07T04:22:01.813Z,1021.05
2023-09-07T04:23:01.820Z,1021.06
2023-09-07T04:24:01.723Z,1021.07
2023-09-07T04:25:01.715Z,1021.08
2023-09-07T04:26:01.667Z,1021.10
2023-09-07T04:27:01.634Z,1021.07
2023-09-07T04:28:01.669Z,1021.07
2023-09-07T04:29:01.656Z,1021.07
2023-09-07T04:30:01.559Z,1021.07
2023-09-07T04:31:01.540Z,1021.09
2023-09-07T04:32:01.502Z,1021.12
2023-09-07T04:33:01.483Z,1021.13
2023-09-07T04:34:01.422Z,1021.14
2023-09-07T04:35:01.485Z,1021.09
2023-09-07T04:36:01.372Z,1021.08
2023-09-07T04:37:01.339Z,1021.13
2023-09-07T04:38:01.327Z,1021.10
2023-09-07T04:39:01.930Z,1021.12
2023-09-07T04:40:01.234Z,1021.13
2023-09-07T04:41:01.287Z,1021.13
2023-09-07T04:42:01.193Z,1021.13
2023-09-07T04:43:01.131Z,1021.15
2023-09-07T04:44:01.124Z,1021.15
2023-09-07T04:45:01.208Z,1021.17
2023-09-07T04:46:01.155Z,1021.15
2023-09-07T04:47:01.080Z,1021.14
2023-09-07T04:48:01.038Z,1021.14
2023-09-07T04:49:00.957Z,1021.19
2023-09-07T04:50:00.925Z,1021.19
2023-09-07T04:51:00.871Z,1021.16
2023-09-07T04:52:00.850Z,1021.19
2023-09-07T04:53:00.958Z,1021.16
2023-09-07T04:54:00.785Z,1021.19
2023-09-07T04:55:00.770Z,1021.19
2023-09-07T04:56:00.736Z,1021.21
2023-09-07T04:57:00.735Z,1021.21
2023-09-07T04:58:00.718Z,1021.21
2023-09-07T04:59:00.632Z,1021.22
2023-09-07T05:00:00.661Z,1021.23
2023-09-07T05:01:00.586Z,1021.23
2023-09-07T05:02:00.543Z,1021.28
2023-09-07T05:03:00.590Z,1021.29
2023-09-07T05:04:00.650Z,1021.28
2023-09-07T05:05:00.445Z,1021.27
2023-09-07T05:06:00.410Z,1021.28
2023-09-07T05:07:00.375Z,1021.30
2023-09-07T05:08:00.360Z,1021.32
2023-09-07T05:09:00.323Z,1021.31
2023-09-07T05:10:00.347Z,1021.31
2023-09-07T05:11:00.300Z,1021.32
2023-09-07T05:12:00.221Z,1021.31
2023-09-07T05:13:00.196Z,1021.29
2023-09-07T05:14:00.168Z,1021.28
2023-09-07T05:15:00.142Z,1021.30
2023-09-07T05:16:00.199Z,1021.31
2023-09-07T05:17:00.136Z,1021.28
2023-09-07T05:18:00.067Z,1021.28
2023-09-07T05:19:00.046Z,1021.28
2023-09-07T05:19:59.967Z,1021.28
2023-09-07T05:20:59.935Z,1021.26
2023-09-07T05:22:00.068Z,1021.30
2023-09-07T05:22:59.879Z,1021.27
2023-09-07T05:23:59.864Z,1021.32
2023-09-07T05:25:02.619Z,1021.31
2023-09-07T05:25:59.786Z,1021.31
2023-09-07T05:26:59.761Z,1021.31
2023-09-07T05:27:59.818Z,1021.31
2023-09-07T05:28:59.695Z,1021.25
2023-09-07T05:29:59.667Z,1021.31
2023-09-07T05:30:59.790Z,1021.29
2023-09-07T05:32:02.645Z,1021.28
2023-09-07T05:32:59.597Z,1021.30
2023-09-07T05:33:59.738Z,1021.32
2023-09-07T05:34:59.514Z,1021.29
2023-09-07T05:35:59.524Z,1021.30
2023-09-07T05:36:59.493Z,1021.35
2023-09-07T05:37:59.432Z,1021.36
2023-09-07T05:38:59.402Z,1021.37
2023-09-07T05:39:59.478Z,1021.38
2023-09-07T05:40:59.351Z,1021.39
2023-09-07T05:41:59.309Z,1021.41
2023-09-07T05:42:59.283Z,1021.37
2023-09-07T05:43:59.241Z,1021.35
2023-09-07T05:44:59.257Z,1021.37
2023-09-07T05:45:59.220Z,1021.38
2023-09-07T05:46:59.208Z,1021.40
2023-09-07T05:47:59.189Z,1021.38
2023-09-07T05:48:59.099Z,1021.40
2023-09-07T05:49:59.058Z,1021.43
2023-09-07T05:50:59.094Z,1021.47
2023-09-07T05:51:59.103Z,1021.45
2023-09-07T05:52:58.954Z,1021.49
2023-09-07T05:53:58.941Z,1021.48
2023-09-07T05:54:59.004Z,1021.52
2023-09-07T05:55:58.954Z,1021.48
2023-09-07T05:56:58.832Z,1021.48
2023-09-07T05:57:58.835Z,1021.45
2023-09-07T05:58:58.772Z,1021.50
2023-09-07T05:59:58.749Z,1021.48
2023-09-07T06:00:58.853Z,1021.47
2023-09-07T06:01:58.693Z,1021.50
2023-09-07T06:02:58.798Z,1021.50
2023-09-07T06:03:58.741Z,1021.53
2023-09-07T06:04:58.597Z,1021.53
2023-09-07T06:05:58.560Z,1021.56
2023-09-07T06:06:58.591Z,1021.55
2023-09-07T06:07:58.510Z,1021.55
2023-09-07T06:08:58.526Z,1021.58
2023-09-07T06:09:58.462Z,1021.59
2023-09-07T06:10:58.410Z,1021.57
2023-09-07T06:11:58.491Z,1021.56
2023-09-07T06:12:58.816Z,1021.56
2023-09-07T06:13:58.338Z,1021.58
2023-09-07T06:14:58.293Z,1021.58
2023-09-07T06:15:58.262Z,1021.55
2023-09-07T06:16:58.320Z,1021.56
2023-09-07T06:17:58.254Z,1021.60
2023-09-07T06:18:58.167Z,1021.60
2023-09-07T06:19:58.171Z,1021.56
2023-09-07T06:21:07.563Z,1021.58
2023-09-07T06:21:58.084Z,1021.57
2023-09-07T06:22:58.132Z,1021.59
2023-09-07T06:23:58.031Z,1021.63
2023-09-07T06:24:58.035Z,1021.66
2023-09-07T06:25:57.958Z,1021.64
2023-09-07T06:26:57.938Z,1021.64
2023-09-07T06:27:57.900Z,1021.60
2023-09-07T06:28:57.917Z,1021.64
2023-09-07T06:29:57.834Z,1021.62
2023-09-07T06:30:57.857Z,1021.61
2023-09-07T06:31:57.915Z,1021.65
2023-09-07T06:32:57.790Z,1021.66
2023-09-07T06:33:57.720Z,1021.62
2023-09-07T06:34:57.799Z,1021.67
2023-09-07T06:35:57.670Z,1021.66
2023-09-07T06:36:57.622Z,1021.63
2023-09-07T06:37:57.642Z,1021.67
2023-09-07T06:38:57.565Z,1021.64
2023-09-07T06:39:57.552Z,1021.61
2023-09-07T06:40:57.573Z,1021.64
2023-09-07T06:41:57.483Z,1021.61
2023-09-07T06:42:57.468Z,1021.65
2023-09-07T06:43:57.427Z,1021.63
2023-09-07T06:44:57.386Z,1021.62
2023-09-07T06:45:57.402Z,1021.62
2023-09-07T06:46:57.377Z,1021.63
2023-09-07T06:47:57.323Z,1021.64
2023-09-07T06:48:57.278Z,1021.70
2023-09-07T06:49:57.250Z,1021.66
2023-09-07T06:50:57.318Z,1021.70
2023-09-07T06:51:57.276Z,1021.70
2023-09-07T06:52:57.202Z,1021.70
2023-09-07T06:53:57.962Z,1021.71
2023-09-07T06:54:57.105Z,1021.72
2023-09-07T06:55:57.069Z,1021.71
2023-09-07T06:56:57.108Z,1021.71
2023-09-07T06:57:57.011Z,1021.66
2023-09-07T06:58:57.034Z,1021.67
2023-09-07T06:59:56.957Z,1021.67
2023-09-07T07:00:56.985Z,1021.64
2023-09-07T07:01:56.952Z,1021.68
2023-09-07T07:02:59.297Z,1021.66
2023-09-07T07:03:56.944Z,1021.66
2023-09-07T07:04:56.875Z,1021.68
2023-09-07T07:05:56.804Z,1021.71
2023-09-07T07:06:56.746Z,1021.67
2023-09-07T07:07:56.755Z,1021.70
2023-09-07T07:08:56.689Z,1021.70
2023-09-07T07:09:56.672Z,1021.68
2023-09-07T07:10:56.808Z,1021.70
2023-09-07T07:11:56.609Z,1021.67
2023-09-07T07:12:56.568Z,1021.68
2023-09-07T07:13:56.574Z,1021.67
2023-09-07T07:14:56.529Z,1021.71
2023-09-07T07:15:56.544Z,1021.68
2023-09-07T07:16:56.665Z,1021.72
2023-09-07T07:17:56.486Z,1021.71
2023-09-07T07:18:56.411Z,1021.74
2023-09-07T07:19:56.413Z,1021.72
2023-09-07T07:20:56.380Z,1021.74
2023-09-07T07:21:56.322Z,1021.71
2023-09-07T07:22:56.386Z,1021.73
2023-09-07T07:23:56.266Z,1021.69
2023-09-07T07:24:56.230Z,1021.72
2023-09-07T07:25:56.227Z,1021.74
2023-09-07T07:26:56.178Z,1021.76
2023-09-07T07:27:56.170Z,1021.72
2023-09-07T07:28:56.176Z,1021.72
2023-09-07T07:29:56.131Z,1021.77
2023-09-07T07:30:56.063Z,1021.75
2023-09-07T07:31:56.121Z,1021.76
2023-09-07T07:32:56.064Z,1021.76
2023-09-07T07:33:56.046Z,1021.74
2023-09-07T07:34:56.003Z,1021.80
2023-09-07T07:35:55.943Z,1021.79
2023-09-07T07:36:55.888Z,1021.80
2023-09-07T07:37:55.867Z,1021.81
2023-09-07T07:38:55.901Z,1021.83
2023-09-07T07:39:55.886Z,1021.83
2023-09-07T07:40:55.798Z,1021.84
2023-09-07T07:41:55.795Z,1021.82
2023-09-07T07:42:55.758Z,1021.83
2023-09-07T07:43:55.701Z,1021.84
2023-09-07T07:44:55.669Z,1021.84
2023-09-07T07:45:55.778Z,1021.87
2023-09-07T07:46:55.707Z,1021.83
2023-09-07T07:47:55.661Z,1021.87
2023-09-07T07:48:55.560Z,1021.87
2023-09-07T07:49:55.538Z,1021.91
2023-09-07T07:50:55.498Z,1021.90
2023-09-07T07:51:55.590Z,1021.87
2023-09-07T07:52:55.469Z,1021.87
2023-09-07T07:53:55.442Z,1021.84
2023-09-07T07:54:55.388Z,1021.90
2023-09-07T07:55:55.404Z,1021.89
2023-09-07T07:56:55.346Z,1021.90
2023-09-07T07:57:55.353Z,1021.85
2023-09-07T07:58:55.282Z,1021.86
2023-09-07T07:59:55.308Z,1021.88
2023-09-07T08:00:55.217Z,1021.84
2023-09-07T08:01:55.199Z,1021.82
2023-09-07T08:02:55.192Z,1021.90
2023-09-07T08:03:55.321Z,1021.93
2023-09-07T08:04:55.197Z,1021.88
2023-09-07T08:05:55.174Z,1021.84
2023-09-07T08:06:55.054Z,1021.86
2023-09-07T08:07:55.056Z,1021.85
2023-09-07T08:08:55.010Z,1021.84
2023-09-07T08:09:55.055Z,1021.86
2023-09-07T08:10:54.954Z,1021.84
2023-09-07T08:11:54.922Z,1021.85
2023-09-07T08:12:54.888Z,1021.84
2023-09-07T08:13:54.919Z,1021.82
2023-09-07T08:14:54.842Z,1021.84
2023-09-07T08:15:54.923Z,1021.86
2023-09-07T08:16:55.002Z,1021.83
2023-09-07T08:17:54.923Z,1021.91
2023-09-07T08:18:54.843Z,1021.84
2023-09-07T08:19:54.713Z,1021.87
2023-09-07T08:20:54.685Z,1021.89
2023-09-07T08:21:54.655Z,1021.86
2023-09-07T08:22:54.671Z,1021.91
2023-09-07T08:23:54.668Z,1021.88
2023-09-07T08:24:54.573Z,1021.85
2023-09-07T08:25:54.601Z,1021.86
2023-09-07T08:26:54.510Z,1021.86
2023-09-07T08:27:54.502Z,1021.86
2023-09-07T08:28:54.518Z,1021.84
2023-09-07T08:29:54.450Z,1021.85
2023-09-07T08:30:54.559Z,1021.85
2023-09-07T08:31:56.025Z,1021.85
2023-09-07T08:32:54.421Z,1021.86
2023-09-07T08:33:54.368Z,1021.75
2023-09-07T08:34:54.675Z,1021.75
2023-09-07T08:35:54.294Z,1021.78
2023-09-07T08:36:54.274Z,1021.74
2023-09-07T08:37:54.227Z,1021.74
2023-09-07T08:38:54.197Z,1021.73
2023-09-07T08:39:54.191Z,1021.73
2023-09-07T08:40:54.198Z,1021.71
2023-09-07T08:42:00.617Z,1021.74
2023-09-07T08:42:54.084Z,1021.78
2023-09-07T08:43:54.071Z,1021.80
2023-09-07T08:44:54.036Z,1021.78
2023-09-07T08:45:54.097Z,1021.74
2023-09-07T08:46:54.028Z,1021.74
2023-09-07T08:47:53.984Z,1021.74
2023-09-07T08:48:53.959Z,1021.73
2023-09-07T08:49:53.905Z,1021.74
2023-09-07T08:50:53.877Z,1021.75
2023-09-07T08:51:53.907Z,1021.71
2023-09-07T08:52:53.878Z,1021.72
2023-09-07T08:53:53.799Z,1021.78
2023-09-07T08:54:53.769Z,1021.76
2023-09-07T08:55:53.745Z,1021.76
2023-09-07T08:56:53.746Z,1021.75
2023-09-07T08:57:53.691Z,1021.77
2023-09-07T08:58:53.732Z,1021.79
2023-09-07T08:59:53.677Z,1021.79
2023-09-07T09:00:53.679Z,1021.76
2023-09-07T09:01:53.670Z,1021.79
2023-09-07T09:02:56.789Z,1021.79
2023-09-07T09:03:53.656Z,1021.79
2023-09-07T09:04:53.603Z,1021.74
2023-09-07T09:05:53.487Z,1021.79
2023-09-07T09:06:53.508Z,1021.81
2023-09-07T09:07:53.454Z,1021.79
2023-09-07T09:08:53.478Z,1021.77
2023-09-07T09:09:53.409Z,1021.83
2023-09-07T09:10:53.346Z,1021.81
2023-09-07T09:11:53.331Z,1021.80
2023-09-07T09:12:53.373Z,1021.81
2023-09-07T09:13:53.372Z,1021.76
2023-09-07T09:14:53.254Z,1021.74
2023-09-07T09:15:53.252Z,1021.77
2023-09-07T09:16:53.275Z,1021.75
2023-09-07T09:17:53.206Z,1021.72
2023-09-07T09:18:53.334Z,1021.71
2023-09-07T09:19:53.122Z,1021.69
2023-09-07T09:20:53.093Z,1021.72
2023-09-07T09:21:53.069Z,1021.71
2023-09-07T09:22:53.105Z,1021.73
2023-09-07T09:23:53.014Z,1021.71
2023-09-07T09:24:53.199Z,1021.68
2023-09-07T09:25:52.968Z,1021.72
2023-09-07T09:26:52.970Z,1021.68
2023-09-07T09:27:52.938Z,1021.62
2023-09-07T09:28:53.178Z,1021.67
2023-09-07T09:29:52.895Z,1021.64
2023-09-07T09:30:52.957Z,1021.60
2023-09-07T09:31:52.835Z,1021.61
2023-09-07T09:32:52.896Z,1021.58
2023-09-07T09:33:52.887Z,1021.55
2023-09-07T09:34:52.759Z,1021.51
2023-09-07T09:35:52.729Z,1021.50
2023-09-07T09:36:52.764Z,1021.52
2023-09-07T09:37:52.693Z,1021.51
2023-09-07T09:38:52.666Z,1021.46
2023-09-07T09:39:52.641Z,1021.50
2023-09-07T09:40:52.602Z,1021.51
2023-09-07T09:41:52.647Z,1021.50
2023-09-07T09:42:52.598Z,1021.53
2023-09-07T09:43:52.824Z,1021.51
2023-09-07T09:44:52.533Z,1021.51
2023-09-07T09:45:52.611Z,1021.49
2023-09-07T09:46:52.609Z,1021.48
2023-09-07T09:47:52.455Z,1021.53
2023-09-07T09:48:52.459Z,1021.49
2023-09-07T09:49:52.393Z,1021.47
2023-09-07T09:50:52.340Z,1021.44
2023-09-07T09:51:52.322Z,1021.42
2023-09-07T09:52:52.336Z,1021.39
2023-09-07T09:53:52.254Z,1021.40
2023-09-07T09:54:52.301Z,1021.42
2023-09-07T09:55:52.262Z,1021.42
2023-09-07T09:56:52.211Z,1021.42
2023-09-07T09:57:52.188Z,1021.38
2023-09-07T09:58:52.179Z,1021.41
2023-09-07T09:59:52.107Z,1021.39
2023-09-07T10:00:52.229Z,1021.40
2023-09-07T10:01:52.145Z,1021.40
2023-09-07T10:02:52.077Z,1021.42
2023-09-07T10:03:52.034Z,1021.44
2023-09-07T10:04:51.991Z,1021.45
2023-09-07T10:05:51.998Z,1021.38
2023-09-07T10:06:52.340Z,1021.39
2023-09-07T10:07:51.966Z,1021.39
2023-09-07T10:08:51.890Z,1021.36
2023-09-07T10:09:51.863Z,1021.38
2023-09-07T10:10:51.875Z,1021.34
2023-09-07T10:11:51.810Z,1021.42
2023-09-07T10:12:51.855Z,1021.46
2023-09-07T10:13:51.774Z,1021.42
2023-09-07T10:14:51.781Z,1021.38
2023-09-07T10:15:51.731Z,1021.48
2023-09-07T10:16:51.874Z,1021.43
2023-09-07T10:17:51.685Z,1021.43
2023-09-07T10:18:51.696Z,1021.42
2023-09-07T10:19:51.630Z,1021.46
2023-09-07T10:20:51.693Z,1021.42
2023-09-07T10:21:51.565Z,1021.41
2023-09-07T10:22:51.545Z,1021.38
2023-09-07T10:23:51.540Z,1021.37
2023-09-07T10:24:51.496Z,1021.36
2023-09-07T10:25:51.537Z,1021.38
2023-09-07T10:26:51.442Z,1021.35
2023-09-07T10:27:51.419Z,1021.36
2023-09-07T10:28:51.407Z,1021.37
2023-09-07T10:29:55.503Z,1021.31
2023-09-07T10:30:51.443Z,1021.34
2023-09-07T10:31:54.413Z,1021.37
2023-09-07T10:32:51.418Z,1021.34
2023-09-07T10:33:51.321Z,1021.37
2023-09-07T10:34:51.257Z,1021.31
2023-09-07T10:35:51.224Z,1021.34
2023-09-07T10:36:51.209Z,1021.34
2023-09-07T10:37:51.240Z,1021.30
2023-09-07T10:38:51.156Z,1021.33
2023-09-07T10:39:51.151Z,1021.33
2023-09-07T10:40:51.136Z,1021.28
2023-09-07T10:41:51.080Z,1021.27
2023-09-07T10:42:51.069Z,1021.25
2023-09-07T10:43:51.105Z,1021.27
2023-09-07T10:44:51.041Z,1021.26
2023-09-07T10:45:51.888Z,1021.27
2023-09-07T10:46:51.012Z,1021.28
2023-09-07T10:47:50.986Z,1021.25
2023-09-07T10:48:51.062Z,1021.23
2023-09-07T10:49:50.968Z,1021.24
2023-09-07T10:50:50.864Z,1021.28
2023-09-07T10:51:50.832Z,1021.28
2023-09-07T10:52:50.819Z,1021.26
2023-09-07T10:53:50.786Z,1021.26
2023-09-07T10:54:50.768Z,1021.25
2023-09-07T10:55:50.789Z,1021.28
2023-09-07T10:56:50.729Z,1021.24
2023-09-07T10:57:50.696Z,1021.24
2023-09-07T10:58:50.671Z,1021.25
2023-09-07T10:59:50.696Z,1021.32
2023-09-07T11:00:50.630Z,1021.32
2023-09-07T11:01:50.695Z,1021.28
2023-09-07T11:02:50.865Z,1021.25
2023-09-07T11:03:50.662Z,1021.25
2023-09-07T11:04:50.525Z,1021.22
2023-09-07T11:05:50.526Z,1021.20
2023-09-07T11:06:50.480Z,1021.12
2023-09-07T11:07:50.452Z,1021.14
2023-09-07T11:08:50.661Z,1021.19
2023-09-07T11:09:50.403Z,1021.23
2023-09-07T11:10:50.401Z,1021.10
2023-09-07T11:11:50.368Z,1021.11
2023-09-07T11:12:50.349Z,1021.13
2023-09-07T11:13:50.307Z,1021.11
2023-09-07T11:14:50.440Z,1021.11
2023-09-07T11:15:50.263Z,1021.10
2023-09-07T11:16:50.336Z,1021.06
2023-09-07T11:17:50.237Z,1021.07
2023-09-07T11:18:50.271Z,1021.12
2023-09-07T11:19:50.171Z,1021.11
2023-09-07T11:20:50.207Z,1021.07
2023-09-07T11:21:50.125Z,1021.06
2023-09-07T11:23:04.616Z,1021.00
2023-09-07T11:23:50.130Z,1021.00
2023-09-07T11:24:50.054Z,1021.01
2023-09-07T11:25:52.551Z,1021.03
2023-09-07T11:26:50.052Z,1021.03
2023-09-07T11:27:50.053Z,1020.99
2023-09-07T11:28:50.009Z,1021.00
2023-09-07T11:29:49.934Z,1020.99
2023-09-07T11:30:49.911Z,1020.98
2023-09-07T11:31:49.930Z,1021.00
2023-09-07T11:32:49.934Z,1020.98
2023-09-07T11:33:49.904Z,1021.00
2023-09-07T11:34:49.923Z,1020.94
2023-09-07T11:35:50.699Z,1020.97
2023-09-07T11:36:49.776Z,1020.91
2023-09-07T11:37:49.746Z,1020.93
2023-09-07T11:38:49.793Z,1020.94
2023-09-07T11:39:49.744Z,1020.93
2023-09-07T11:40:49.681Z,1020.92
2023-09-07T11:41:49.641Z,1020.87
2023-09-07T11:42:49.684Z,1020.90
2023-09-07T11:43:49.596Z,1020.91
2023-09-07T11:44:49.664Z,1020.91
2023-09-07T11:45:50.154Z,1020.90
2023-09-07T11:46:49.546Z,1020.83
2023-09-07T11:47:49.536Z,1020.83
2023-09-07T11:48:49.508Z,1020.89
2023-09-07T11:49:49.464Z,1020.89
2023-09-07T11:50:49.506Z,1020.81
2023-09-07T11:51:49.442Z,1020.88
2023-09-07T11:52:49.391Z,1020.88
2023-09-07T11:53:49.372Z,1020.91
2023-09-07T11:54:49.343Z,1020.82
2023-09-07T11:55:49.336Z,1020.85
2023-09-07T11:56:49.352Z,1020.83
2023-09-07T11:57:49.277Z,1020.87
2023-09-07T11:58:49.321Z,1020.79
2023-09-07T11:59:59.077Z,1020.82
2023-09-07T12:00:49.306Z,1020.87
2023-09-07T12:01:49.270Z,1020.83
2023-09-07T12:02:49.242Z,1020.82
2023-09-07T12:03:49.169Z,1020.86
2023-09-07T12:04:49.132Z,1020.82